createdAt,value
2018-09-30T00:00:27.238Z,0
2018-09-30T00:01:27.293Z,0
2018-09-30T00:02:26.973Z,0
2018-09-30T00:03:27.496Z,0
2018-09-30T00:04:27.216Z,0
2018-09-30T00:05:27.468Z,0
2018-09-30T00:06:27.201Z,0
2018-09-30T00:07:27.208Z,0
2018-09-30T00:08:27.462Z,0
2018-09-30T00:09:27.181Z,0
2018-09-30T00:10:27.449Z,0
2018-09-30T00:11:27.435Z,0
2018-09-30T00:12:27.692Z,0
2018-09-30T00:13:27.463Z,0
2018-09-30T00:14:27.164Z,0
2018-09-30T00:15:27.414Z,0
2018-09-30T00:16:27.403Z,0
2018-09-30T00:17:27.403Z,0
2018-09-30T00:18:29.243Z,0
2018-09-30T00:19:27.546Z,0
2018-09-30T00:20:27.402Z,0
2018-09-30T00:21:27.125Z,0
2018-09-30T00:22:26.867Z,0
2018-09-30T00:23:27.108Z,0
2018-09-30T00:24:26.830Z,0
2018-09-30T00:25:27.352Z,0
2018-09-30T00:26:27.084Z,0
2018-09-30T00:27:27.345Z,0
2018-09-30T00:28:26.564Z,0
2018-09-30T00:29:27.060Z,0
2018-09-30T00:30:27.314Z,0
2018-09-30T00:31:27.583Z,0
2018-09-30T00:32:27.049Z,0
2018-09-30T00:33:27.561Z,0
2018-09-30T00:34:27.036Z,0
2018-09-30T00:35:27.022Z,0
2018-09-30T00:36:27.750Z,0
2018-09-30T00:37:27.276Z,0
2018-09-30T00:38:27.007Z,0
2018-09-30T00:39:27.251Z,0
2018-09-30T00:40:27.243Z,0
2018-09-30T00:41:26.990Z,0
2018-09-30T00:42:27.509Z,0
2018-09-30T00:43:27.493Z,0
2018-09-30T00:44:26.702Z,0
2018-09-30T00:45:26.706Z,0
2018-09-30T00:46:27.469Z,0
2018-09-30T00:47:26.725Z,0
2018-09-30T00:48:29.083Z,0
2018-09-30T00:49:26.937Z,0
2018-09-30T00:50:27.176Z,0
2018-09-30T00:51:27.437Z,0
2018-09-30T00:52:26.669Z,0
2018-09-30T00:53:26.923Z,0
2018-09-30T00:54:26.930Z,0
2018-09-30T00:55:27.180Z,0
2018-09-30T00:56:26.918Z,0
2018-09-30T00:57:26.691Z,0
2018-09-30T00:58:26.902Z,0
2018-09-30T00:59:26.371Z,0
2018-09-30T01:00:27.161Z,0
2018-09-30T01:01:27.138Z,0
2018-09-30T01:02:27.100Z,0
2018-09-30T01:03:27.355Z,0
2018-09-30T01:04:26.837Z,0
2018-09-30T01:05:26.838Z,0
2018-09-30T01:06:27.086Z,0
2018-09-30T01:07:26.569Z,0
2018-09-30T01:08:26.837Z,0
2018-09-30T01:09:26.896Z,0
2018-09-30T01:10:26.572Z,0
2018-09-30T01:11:27.088Z,0
2018-09-30T01:12:27.296Z,0
2018-09-30T01:13:27.289Z,0
2018-09-30T01:14:26.790Z,0
2018-09-30T01:15:26.777Z,0
2018-09-30T01:16:27.058Z,0
2018-09-30T01:17:26.783Z,0
2018-09-30T01:18:27.013Z,0
2018-09-30T01:19:27.004Z,0
2018-09-30T01:20:26.511Z,0
2018-09-30T01:21:26.984Z,0
2018-09-30T01:22:27.000Z,0
2018-09-30T01:23:27.244Z,0
2018-09-30T01:24:26.727Z,0
2018-09-30T01:25:26.953Z,0
2018-09-30T01:26:26.753Z,0
2018-09-30T01:27:26.957Z,0
2018-09-30T01:28:27.196Z,0
2018-09-30T01:29:27.201Z,0
2018-09-30T01:30:26.416Z,0
2018-09-30T01:31:26.974Z,0
2018-09-30T01:32:26.685Z,0
2018-09-30T01:33:26.656Z,0
2018-09-30T01:34:26.405Z,0
2018-09-30T01:35:26.961Z,0
2018-09-30T01:36:27.155Z,0
2018-09-30T01:37:27.130Z,0
2018-09-30T01:38:26.621Z,0
2018-09-30T01:39:26.609Z,0
2018-09-30T01:40:26.894Z,0
2018-09-30T01:41:26.892Z,0
2018-09-30T01:42:26.642Z,0
2018-09-30T01:43:27.112Z,0
2018-09-30T01:44:26.865Z,0
2018-09-30T01:45:27.110Z,0
2018-09-30T01:46:27.106Z,0
2018-09-30T01:47:26.556Z,0
2018-09-30T01:48:29.814Z,0
2018-09-30T01:49:26.825Z,0
2018-09-30T01:50:26.547Z,0
2018-09-30T01:51:26.802Z,0
2018-09-30T01:52:26.780Z,0
2018-09-30T01:53:26.790Z,0
2018-09-30T01:54:26.765Z,0
2018-09-30T01:55:27.010Z,0
2018-09-30T01:56:26.749Z,0
2018-09-30T01:57:26.504Z,0
2018-09-30T01:58:26.769Z,0
2018-09-30T01:59:26.746Z,0
2018-09-30T02:00:26.736Z,0
2018-09-30T02:01:26.735Z,0
2018-09-30T02:02:26.985Z,0
2018-09-30T02:03:26.735Z,0
2018-09-30T02:04:26.433Z,0
2018-09-30T02:05:26.964Z,0
2018-09-30T02:06:26.926Z,0
2018-09-30T02:07:26.926Z,0
2018-09-30T02:08:26.685Z,0
2018-09-30T02:09:26.674Z,0
2018-09-30T02:10:26.151Z,0
2018-09-30T02:11:26.681Z,0
2018-09-30T02:12:26.641Z,0
2018-09-30T02:13:26.384Z,0
2018-09-30T02:14:26.891Z,0
2018-09-30T02:15:26.883Z,0
2018-09-30T02:16:26.634Z,0
2018-09-30T02:17:26.648Z,0
2018-09-30T02:18:26.606Z,0
2018-09-30T02:19:28.223Z,0
2018-09-30T02:20:26.848Z,0
2018-09-30T02:21:25.830Z,0
2018-09-30T02:22:26.583Z,0
2018-09-30T02:23:26.084Z,0
2018-09-30T02:24:27.031Z,0
2018-09-30T02:25:26.567Z,0
2018-09-30T02:26:26.797Z,0
2018-09-30T02:27:26.545Z,0
2018-09-30T02:28:26.838Z,0
2018-09-30T02:29:26.568Z,0
2018-09-30T02:30:26.551Z,0
2018-09-30T02:31:26.518Z,0
2018-09-30T02:32:26.796Z,0
2018-09-30T02:33:26.766Z,0
2018-09-30T02:34:26.775Z,0
2018-09-30T02:35:26.231Z,0
2018-09-30T02:36:26.765Z,0
2018-09-30T02:37:26.228Z,0
2018-09-30T02:38:26.485Z,0
2018-09-30T02:39:26.474Z,0
2018-09-30T02:40:26.454Z,0
2018-09-30T02:41:26.510Z,0
2018-09-30T02:42:26.243Z,0
2018-09-30T02:43:26.712Z,0
2018-09-30T02:44:26.227Z,0
2018-09-30T02:45:26.719Z,0
2018-09-30T02:46:26.430Z,0
2018-09-30T02:47:26.410Z,0
2018-09-30T02:48:26.698Z,0
2018-09-30T02:49:28.303Z,0
2018-09-30T02:50:26.405Z,0
2018-09-30T02:51:25.881Z,0
2018-09-30T02:52:26.401Z,0
2018-09-30T02:53:26.666Z,0
2018-09-30T02:54:26.384Z,0
2018-09-30T02:55:26.630Z,0
2018-09-30T02:56:26.340Z,0
2018-09-30T02:57:26.590Z,0
2018-09-30T02:58:26.583Z,0
2018-09-30T02:59:26.329Z,0
2018-09-30T03:00:26.607Z,0
2018-09-30T03:01:26.587Z,0
2018-09-30T03:02:26.323Z,0
2018-09-30T03:03:26.289Z,0
2018-09-30T03:04:26.044Z,0
2018-09-30T03:05:26.557Z,0
2018-09-30T03:06:25.761Z,0
2018-09-30T03:07:26.035Z,0
2018-09-30T03:08:26.255Z,0
2018-09-30T03:09:26.015Z,0
2018-09-30T03:10:26.249Z,0
2018-09-30T03:11:26.496Z,0
2018-09-30T03:12:25.975Z,0
2018-09-30T03:13:26.264Z,0
2018-09-30T03:14:26.519Z,0
2018-09-30T03:15:26.207Z,0
2018-09-30T03:16:26.210Z,0
2018-09-30T03:17:26.201Z,0
2018-09-30T03:18:25.926Z,0
2018-09-30T03:19:26.993Z,0
2018-09-30T03:20:26.429Z,0
2018-09-30T03:21:25.663Z,0
2018-09-30T03:22:25.909Z,0
2018-09-30T03:23:25.889Z,0
2018-09-30T03:24:25.887Z,0
2018-09-30T03:25:25.890Z,0
2018-09-30T03:26:25.632Z,0
2018-09-30T03:27:26.129Z,0
2018-09-30T03:28:25.874Z,0
2018-09-30T03:29:26.372Z,0
2018-09-30T03:30:26.129Z,0
2018-09-30T03:31:26.369Z,0
2018-09-30T03:32:25.609Z,0
2018-09-30T03:33:25.861Z,0
2018-09-30T03:34:25.574Z,0
2018-09-30T03:35:26.074Z,0
2018-09-30T03:36:26.060Z,0
2018-09-30T03:37:26.045Z,0
2018-09-30T03:38:25.793Z,0
2018-09-30T03:39:26.162Z,0
2018-09-30T03:40:25.771Z,0
2018-09-30T03:41:25.541Z,0
2018-09-30T03:42:25.536Z,0
2018-09-30T03:43:25.752Z,0
2018-09-30T03:44:26.015Z,0
2018-09-30T03:45:25.766Z,0
2018-09-30T03:46:25.783Z,0
2018-09-30T03:47:26.015Z,0
2018-09-30T03:48:25.976Z,0
2018-09-30T03:49:29.522Z,0
2018-09-30T03:50:25.298Z,0
2018-09-30T03:51:25.699Z,0
2018-09-30T03:52:26.049Z,0
2018-09-30T03:53:25.931Z,0
2018-09-30T03:54:25.960Z,0
2018-09-30T03:55:26.280Z,0
2018-09-30T03:56:25.207Z,0
2018-09-30T03:57:25.657Z,0
2018-09-30T03:58:26.035Z,0
2018-09-30T03:59:25.698Z,0
2018-09-30T04:00:25.741Z,0
2018-09-30T04:01:25.916Z,0
2018-09-30T04:02:25.381Z,0
2018-09-30T04:03:25.621Z,0
2018-09-30T04:04:26.212Z,0
2018-09-30T04:05:26.120Z,0
2018-09-30T04:06:26.116Z,0
2018-09-30T04:07:25.832Z,0
2018-09-30T04:08:25.566Z,0
2018-09-30T04:09:26.298Z,0
2018-09-30T04:10:25.843Z,0
2018-09-30T04:11:25.808Z,0
2018-09-30T04:12:26.077Z,0
2018-09-30T04:13:25.849Z,0
2018-09-30T04:14:25.281Z,0
2018-09-30T04:15:25.781Z,0
2018-09-30T04:16:25.531Z,0
2018-09-30T04:17:26.037Z,0
2018-09-30T04:18:25.764Z,0
2018-09-30T04:19:25.776Z,0
2018-09-30T04:20:26.319Z,0
2018-09-30T04:21:25.729Z,0
2018-09-30T04:22:25.497Z,0
2018-09-30T04:23:25.492Z,0
2018-09-30T04:24:25.718Z,0
2018-09-30T04:25:25.547Z,0
2018-09-30T04:26:25.453Z,0
2018-09-30T04:27:25.451Z,0
2018-09-30T04:28:25.697Z,0
2018-09-30T04:29:25.430Z,0
2018-09-30T04:30:25.752Z,0
2018-09-30T04:31:25.675Z,0
2018-09-30T04:32:25.424Z,0
2018-09-30T04:33:26.096Z,0
2018-09-30T04:34:25.686Z,0
2018-09-30T04:35:25.681Z,0
2018-09-30T04:36:25.362Z,0
2018-09-30T04:37:25.682Z,0
2018-09-30T04:38:25.628Z,0
2018-09-30T04:39:25.614Z,0
2018-09-30T04:40:25.611Z,0
2018-09-30T04:41:25.629Z,0
2018-09-30T04:42:25.582Z,0
2018-09-30T04:43:25.052Z,0
2018-09-30T04:44:25.052Z,0
2018-09-30T04:45:25.622Z,0
2018-09-30T04:46:25.053Z,0
2018-09-30T04:47:25.284Z,0
2018-09-30T04:48:25.403Z,0
2018-09-30T04:49:24.800Z,0
2018-09-30T04:50:26.376Z,0
2018-09-30T04:51:25.016Z,0
2018-09-30T04:52:25.535Z,0
2018-09-30T04:53:25.763Z,0
2018-09-30T04:54:25.200Z,0
2018-09-30T04:55:25.514Z,0
2018-09-30T04:56:25.227Z,0
2018-09-30T04:57:24.971Z,0
2018-09-30T04:58:25.213Z,0
2018-09-30T04:59:25.337Z,0
2018-09-30T05:00:25.325Z,0
2018-09-30T05:01:25.697Z,0
2018-09-30T05:02:25.208Z,0
2018-09-30T05:03:25.884Z,0
2018-09-30T05:04:25.213Z,0
2018-09-30T05:05:25.439Z,0
2018-09-30T05:06:25.175Z,0
2018-09-30T05:07:25.152Z,0
2018-09-30T05:08:25.141Z,0
2018-09-30T05:09:25.402Z,0
2018-09-30T05:10:25.159Z,0
2018-09-30T05:11:24.862Z,0
2018-09-30T05:12:24.852Z,0
2018-09-30T05:13:24.839Z,0
2018-09-30T05:14:25.340Z,0
2018-09-30T05:15:25.415Z,5
2018-09-30T05:16:25.910Z,5
2018-09-30T05:17:25.088Z,5
2018-09-30T05:18:25.336Z,5
2018-09-30T05:19:25.583Z,5
2018-09-30T05:20:25.898Z,5
2018-09-30T05:21:24.523Z,5
2018-09-30T05:22:25.300Z,10
2018-09-30T05:23:25.298Z,10
2018-09-30T05:24:25.287Z,10
2018-09-30T05:25:26.134Z,10
2018-09-30T05:26:25.035Z,10
2018-09-30T05:27:25.250Z,15
2018-09-30T05:28:24.486Z,15
2018-09-30T05:29:25.522Z,15
2018-09-30T05:30:24.776Z,15
2018-09-30T05:31:25.594Z,15
2018-09-30T05:32:25.239Z,20
2018-09-30T05:33:24.963Z,20
2018-09-30T05:34:25.237Z,20
2018-09-30T05:35:24.693Z,20
2018-09-30T05:36:24.670Z,25
2018-09-30T05:37:25.860Z,25
2018-09-30T05:38:25.176Z,25
2018-09-30T05:39:25.448Z,25
2018-09-30T05:40:25.435Z,30
2018-09-30T05:41:24.651Z,30
2018-09-30T05:42:24.625Z,30
2018-09-30T05:43:24.869Z,35
2018-09-30T05:44:24.864Z,35
2018-09-30T05:45:24.669Z,40
2018-09-30T05:46:24.854Z,40
2018-09-30T05:47:24.587Z,40
2018-09-30T05:48:25.083Z,45
2018-09-30T05:49:25.547Z,45
2018-09-30T05:50:25.400Z,45
2018-09-30T05:51:26.691Z,45
2018-09-30T05:52:24.818Z,50
2018-09-30T05:53:25.300Z,50
2018-09-30T05:54:25.063Z,55
2018-09-30T05:55:25.128Z,55
2018-09-30T05:56:24.776Z,55
2018-09-30T05:57:24.877Z,55
2018-09-30T05:58:25.035Z,60
2018-09-30T05:59:24.249Z,60
2018-09-30T06:00:24.512Z,60
2018-09-30T06:01:25.025Z,60
2018-09-30T06:02:24.763Z,65
2018-09-30T06:03:24.981Z,65
2018-09-30T06:04:24.744Z,65
2018-09-30T06:05:25.080Z,70
2018-09-30T06:06:25.004Z,70
2018-09-30T06:07:24.695Z,70
2018-09-30T06:08:25.235Z,70
2018-09-30T06:09:25.510Z,70
2018-09-30T06:10:25.246Z,75
2018-09-30T06:11:24.918Z,75
2018-09-30T06:12:25.192Z,75
2018-09-30T06:13:24.395Z,75
2018-09-30T06:14:26.003Z,80
2018-09-30T06:15:25.005Z,80
2018-09-30T06:16:25.147Z,80
2018-09-30T06:17:24.904Z,85
2018-09-30T06:18:24.867Z,85
2018-09-30T06:19:24.866Z,85
2018-09-30T06:20:24.633Z,85
2018-09-30T06:21:24.351Z,85
2018-09-30T06:22:24.841Z,85
2018-09-30T06:23:24.328Z,85
2018-09-30T06:24:24.982Z,90
2018-09-30T06:25:24.893Z,90
2018-09-30T06:26:24.548Z,90
2018-09-30T06:27:24.305Z,90
2018-09-30T06:28:24.561Z,90
2018-09-30T06:29:24.571Z,95
2018-09-30T06:30:25.261Z,95
2018-09-30T06:31:24.510Z,95
2018-09-30T06:32:24.532Z,95
2018-09-30T06:33:24.797Z,100
2018-09-30T06:34:24.844Z,100
2018-09-30T06:35:24.530Z,100
2018-09-30T06:36:24.229Z,100
2018-09-30T06:37:25.083Z,100
2018-09-30T06:38:24.208Z,105
2018-09-30T06:39:24.737Z,105
2018-09-30T06:40:25.205Z,105
2018-09-30T06:41:24.730Z,105
2018-09-30T06:42:24.977Z,105
2018-09-30T06:43:24.457Z,105
2018-09-30T06:44:24.977Z,105
2018-09-30T06:45:25.365Z,110
2018-09-30T06:46:24.449Z,110
2018-09-30T06:47:24.940Z,115
2018-09-30T06:48:24.909Z,115
2018-09-30T06:49:24.414Z,120
2018-09-30T06:50:25.001Z,125
2018-09-30T06:51:24.891Z,125
2018-09-30T06:52:24.132Z,130
2018-09-30T06:53:24.637Z,130
2018-09-30T06:54:24.642Z,135
2018-09-30T06:55:24.642Z,140
2018-09-30T06:56:24.373Z,140
2018-09-30T06:57:24.104Z,145
2018-09-30T06:58:24.346Z,145
2018-09-30T06:59:24.077Z,150
2018-09-30T07:00:24.636Z,150
2018-09-30T07:01:24.600Z,150
2018-09-30T07:02:24.064Z,155
2018-09-30T07:03:24.571Z,165
2018-09-30T07:04:24.058Z,170
2018-09-30T07:05:24.399Z,175
2018-09-30T07:06:24.085Z,180
2018-09-30T07:07:24.292Z,180
2018-09-30T07:08:24.303Z,180
2018-09-30T07:09:24.366Z,190
2018-09-30T07:10:24.068Z,190
2018-09-30T07:11:24.559Z,190
2018-09-30T07:12:24.547Z,195
2018-09-30T07:13:24.556Z,195
2018-09-30T07:14:24.026Z,200
2018-09-30T07:15:24.349Z,200
2018-09-30T07:16:24.266Z,200
2018-09-30T07:17:24.529Z,200
2018-09-30T07:18:24.534Z,205
2018-09-30T07:19:24.784Z,205
2018-09-30T07:20:23.778Z,210
2018-09-30T07:21:24.249Z,210
2018-09-30T07:22:25.407Z,210
2018-09-30T07:23:24.273Z,210
2018-09-30T07:24:24.533Z,210
2018-09-30T07:25:24.541Z,210
2018-09-30T07:26:24.273Z,215
2018-09-30T07:27:24.548Z,215
2018-09-30T07:28:24.512Z,215
2018-09-30T07:29:24.789Z,215
2018-09-30T07:30:24.536Z,215
2018-09-30T07:31:24.296Z,220
2018-09-30T07:32:24.274Z,220
2018-09-30T07:33:24.540Z,220
2018-09-30T07:34:24.545Z,220
2018-09-30T07:35:24.605Z,220
2018-09-30T07:36:24.545Z,220
2018-09-30T07:37:24.277Z,220
2018-09-30T07:38:24.275Z,225
2018-09-30T07:39:25.057Z,225
2018-09-30T07:40:24.757Z,225
2018-09-30T07:41:24.015Z,225
2018-09-30T07:42:24.808Z,225
2018-09-30T07:43:24.294Z,225
2018-09-30T07:44:24.545Z,225
2018-09-30T07:45:24.394Z,225
2018-09-30T07:46:24.838Z,225
2018-09-30T07:47:24.576Z,225
2018-09-30T07:48:24.575Z,225
2018-09-30T07:49:24.554Z,225
2018-09-30T07:50:24.123Z,225
2018-09-30T07:51:24.560Z,225
2018-09-30T07:52:24.979Z,225
2018-09-30T07:53:24.813Z,225
2018-09-30T07:54:24.568Z,225
2018-09-30T07:55:24.321Z,220
2018-09-30T07:56:24.573Z,220
2018-09-30T07:57:24.318Z,220
2018-09-30T07:58:23.810Z,215
2018-09-30T07:59:24.353Z,215
2018-09-30T08:00:24.932Z,215
2018-09-30T08:01:24.651Z,215
2018-09-30T08:02:24.575Z,215
2018-09-30T08:03:24.334Z,215
2018-09-30T08:04:24.348Z,215
2018-09-30T08:05:24.166Z,215
2018-09-30T08:06:25.162Z,215
2018-09-30T08:07:24.864Z,215
2018-09-30T08:08:24.066Z,215
2018-09-30T08:09:24.627Z,210
2018-09-30T08:10:24.679Z,210
2018-09-30T08:11:24.630Z,205
2018-09-30T08:12:24.869Z,205
2018-09-30T08:13:24.978Z,205
2018-09-30T08:14:24.409Z,205
2018-09-30T08:15:24.676Z,210
2018-09-30T08:16:24.837Z,210
2018-09-30T08:17:24.608Z,210
2018-09-30T08:18:24.082Z,210
2018-09-30T08:19:24.872Z,210
2018-09-30T08:20:24.162Z,210
2018-09-30T08:21:24.620Z,210
2018-09-30T08:22:24.360Z,210
2018-09-30T08:23:24.896Z,210
2018-09-30T08:24:25.376Z,210
2018-09-30T08:25:24.661Z,210
2018-09-30T08:26:24.611Z,210
2018-09-30T08:27:24.871Z,215
2018-09-30T08:28:24.902Z,215
2018-09-30T08:29:24.078Z,215
2018-09-30T08:30:24.895Z,215
2018-09-30T08:31:24.850Z,215
2018-09-30T08:32:24.628Z,215
2018-09-30T08:33:24.837Z,215
2018-09-30T08:34:24.310Z,215
2018-09-30T08:35:24.591Z,215
2018-09-30T08:36:24.320Z,215
2018-09-30T08:37:24.830Z,215
2018-09-30T08:38:24.319Z,220
2018-09-30T08:39:24.322Z,220
2018-09-30T08:40:24.616Z,220
2018-09-30T08:41:24.558Z,220
2018-09-30T08:42:24.575Z,220
2018-09-30T08:43:24.830Z,220
2018-09-30T08:44:25.095Z,220
2018-09-30T08:45:24.565Z,220
2018-09-30T08:46:24.060Z,220
2018-09-30T08:47:24.235Z,220
2018-09-30T08:48:24.300Z,220
2018-09-30T08:49:25.005Z,220
2018-09-30T08:50:24.085Z,220
2018-09-30T08:51:24.295Z,220
2018-09-30T08:52:24.806Z,220
2018-09-30T08:53:24.521Z,225
2018-09-30T08:54:24.831Z,220
2018-09-30T08:55:24.104Z,225
2018-09-30T08:56:24.975Z,225
2018-09-30T08:57:24.305Z,220
2018-09-30T08:58:24.295Z,220
2018-09-30T08:59:24.296Z,225
2018-09-30T09:00:24.351Z,220
2018-09-30T09:01:24.553Z,220
2018-09-30T09:02:24.549Z,220
2018-09-30T09:03:24.554Z,220
2018-09-30T09:04:24.583Z,220
2018-09-30T09:05:24.535Z,220
2018-09-30T09:06:24.019Z,215
2018-09-30T09:07:24.277Z,215
2018-09-30T09:08:24.521Z,220
2018-09-30T09:09:24.260Z,215
2018-09-30T09:10:24.869Z,215
2018-09-30T09:11:24.290Z,215
2018-09-30T09:12:24.533Z,220
2018-09-30T09:13:24.288Z,215
2018-09-30T09:14:24.766Z,215
2018-09-30T09:15:24.486Z,215
2018-09-30T09:16:24.274Z,215
2018-09-30T09:17:24.506Z,215
2018-09-30T09:18:24.504Z,215
2018-09-30T09:19:24.499Z,215
2018-09-30T09:20:24.304Z,215
2018-09-30T09:21:24.261Z,215
2018-09-30T09:22:26.006Z,215
2018-09-30T09:23:24.761Z,215
2018-09-30T09:24:24.495Z,215
2018-09-30T09:25:24.815Z,215
2018-09-30T09:26:24.758Z,215
2018-09-30T09:27:24.501Z,215
2018-09-30T09:28:24.251Z,215
2018-09-30T09:29:24.502Z,210
2018-09-30T09:30:24.330Z,210
2018-09-30T09:31:24.501Z,210
2018-09-30T09:32:24.512Z,210
2018-09-30T09:33:24.241Z,210
2018-09-30T09:34:24.758Z,210
2018-09-30T09:35:24.063Z,210
2018-09-30T09:36:24.226Z,210
2018-09-30T09:37:24.506Z,210
2018-09-30T09:38:24.709Z,210
2018-09-30T09:39:24.489Z,210
2018-09-30T09:40:24.595Z,210
2018-09-30T09:41:24.758Z,210
2018-09-30T09:42:24.731Z,210
2018-09-30T09:43:24.228Z,210
2018-09-30T09:44:24.473Z,210
2018-09-30T09:45:24.579Z,210
2018-09-30T09:46:23.963Z,210
2018-09-30T09:47:24.243Z,210
2018-09-30T09:48:24.737Z,205
2018-09-30T09:49:24.292Z,205
2018-09-30T09:50:24.309Z,205
2018-09-30T09:51:24.495Z,205
2018-09-30T09:52:29.513Z,205
2018-09-30T09:53:24.222Z,205
2018-09-30T09:54:24.201Z,205
2018-09-30T09:55:24.273Z,205
2018-09-30T09:56:24.253Z,205
2018-09-30T09:57:24.467Z,205
2018-09-30T09:58:24.465Z,205
2018-09-30T09:59:24.680Z,205
2018-09-30T10:00:24.812Z,205
2018-09-30T10:01:24.225Z,205
2018-09-30T10:02:24.483Z,205
2018-09-30T10:03:24.466Z,205
2018-09-30T10:04:24.223Z,205
2018-09-30T10:05:24.121Z,205
2018-09-30T10:06:24.231Z,205
2018-09-30T10:07:24.193Z,205
2018-09-30T10:08:24.668Z,205
2018-09-30T10:09:24.477Z,205
2018-09-30T10:10:23.973Z,205
2018-09-30T10:11:24.197Z,200
2018-09-30T10:12:24.462Z,200
2018-09-30T10:13:24.143Z,200
2018-09-30T10:14:24.457Z,200
2018-09-30T10:15:24.533Z,200
2018-09-30T10:16:24.443Z,200
2018-09-30T10:17:25.250Z,200
2018-09-30T10:18:24.465Z,200
2018-09-30T10:19:24.282Z,200
2018-09-30T10:20:25.073Z,200
2018-09-30T10:21:24.204Z,200
2018-09-30T10:22:23.947Z,200
2018-09-30T10:23:25.788Z,200
2018-09-30T10:24:24.192Z,200
2018-09-30T10:25:24.474Z,200
2018-09-30T10:26:23.932Z,200
2018-09-30T10:27:24.188Z,200
2018-09-30T10:28:24.193Z,200
2018-09-30T10:29:24.453Z,200
2018-09-30T10:30:24.271Z,200
2018-09-30T10:31:24.186Z,200
2018-09-30T10:32:24.457Z,200
2018-09-30T10:33:24.187Z,200
2018-09-30T10:34:24.456Z,200
2018-09-30T10:35:24.426Z,195
2018-09-30T10:36:24.568Z,195
2018-09-30T10:37:24.435Z,195
2018-09-30T10:38:24.127Z,195
2018-09-30T10:39:25.334Z,195
2018-09-30T10:40:24.445Z,195
2018-09-30T10:41:24.685Z,195
2018-09-30T10:42:24.200Z,195
2018-09-30T10:43:24.448Z,195
2018-09-30T10:44:23.693Z,195
2018-09-30T10:45:24.244Z,195
2018-09-30T10:46:24.203Z,195
2018-09-30T10:47:24.749Z,195
2018-09-30T10:48:24.698Z,195
2018-09-30T10:49:24.194Z,195
2018-09-30T10:50:24.036Z,195
2018-09-30T10:51:23.955Z,195
2018-09-30T10:52:24.181Z,195
2018-09-30T10:53:25.455Z,190
2018-09-30T10:54:24.465Z,190
2018-09-30T10:55:25.290Z,190
2018-09-30T10:56:24.199Z,190
2018-09-30T10:57:24.486Z,190
2018-09-30T10:58:23.942Z,190
2018-09-30T10:59:24.450Z,190
2018-09-30T11:00:24.277Z,195
2018-09-30T11:01:23.932Z,190
2018-09-30T11:02:24.214Z,190
2018-09-30T11:03:24.557Z,190
2018-09-30T11:04:24.190Z,190
2018-09-30T11:05:24.594Z,195
2018-09-30T11:06:24.202Z,190
2018-09-30T11:07:24.470Z,185
2018-09-30T11:08:24.467Z,185
2018-09-30T11:09:24.212Z,185
2018-09-30T11:10:24.934Z,185
2018-09-30T11:11:24.228Z,185
2018-09-30T11:12:24.202Z,185
2018-09-30T11:13:24.445Z,190
2018-09-30T11:14:24.720Z,185
2018-09-30T11:15:24.247Z,185
2018-09-30T11:16:24.244Z,185
2018-09-30T11:17:24.000Z,185
2018-09-30T11:18:24.715Z,185
2018-09-30T11:19:24.714Z,185
2018-09-30T11:20:24.029Z,185
2018-09-30T11:21:24.461Z,185
2018-09-30T11:22:24.962Z,185
2018-09-30T11:23:24.214Z,185
2018-09-30T11:24:24.210Z,180
2018-09-30T11:25:24.222Z,180
2018-09-30T11:26:24.544Z,180
2018-09-30T11:27:24.739Z,180
2018-09-30T11:28:24.596Z,180
2018-09-30T11:29:23.975Z,180
2018-09-30T11:30:24.584Z,180
2018-09-30T11:31:24.267Z,180
2018-09-30T11:32:24.735Z,180
2018-09-30T11:33:24.467Z,180
2018-09-30T11:34:24.523Z,180
2018-09-30T11:35:25.064Z,180
2018-09-30T11:36:24.482Z,180
2018-09-30T11:37:24.224Z,180
2018-09-30T11:38:24.228Z,180
2018-09-30T11:39:24.731Z,180
2018-09-30T11:40:24.304Z,180
2018-09-30T11:41:24.490Z,180
2018-09-30T11:42:24.522Z,180
2018-09-30T11:43:23.977Z,180
2018-09-30T11:44:24.491Z,180
2018-09-30T11:45:24.310Z,180
2018-09-30T11:46:24.223Z,180
2018-09-30T11:47:24.482Z,180
2018-09-30T11:48:23.964Z,180
2018-09-30T11:49:24.733Z,175
2018-09-30T11:50:24.728Z,175
2018-09-30T11:51:24.481Z,175
2018-09-30T11:52:24.508Z,175
2018-09-30T11:53:25.566Z,175
2018-09-30T11:54:24.227Z,175
2018-09-30T11:55:24.841Z,175
2018-09-30T11:56:24.248Z,175
2018-09-30T11:57:24.491Z,175
2018-09-30T11:58:24.229Z,175
2018-09-30T11:59:24.504Z,175
2018-09-30T12:00:24.038Z,175
2018-09-30T12:01:24.158Z,175
2018-09-30T12:02:25.089Z,175
2018-09-30T12:03:24.531Z,175
2018-09-30T12:04:24.272Z,175
2018-09-30T12:05:23.779Z,175
2018-09-30T12:06:24.537Z,175
2018-09-30T12:07:24.486Z,175
2018-09-30T12:08:24.500Z,175
2018-09-30T12:09:24.760Z,175
2018-09-30T12:10:24.596Z,170
2018-09-30T12:11:24.258Z,170
2018-09-30T12:12:24.260Z,170
2018-09-30T12:13:24.246Z,170
2018-09-30T12:14:24.253Z,170
2018-09-30T12:15:24.366Z,170
2018-09-30T12:16:24.256Z,170
2018-09-30T12:17:24.281Z,170
2018-09-30T12:18:24.534Z,170
2018-09-30T12:19:24.249Z,170
2018-09-30T12:20:24.574Z,170
2018-09-30T12:21:24.501Z,165
2018-09-30T12:22:24.518Z,165
2018-09-30T12:23:24.250Z,165
2018-09-30T12:24:24.812Z,165
2018-09-30T12:25:24.707Z,165
2018-09-30T12:26:24.517Z,165
2018-09-30T12:27:24.256Z,165
2018-09-30T12:28:24.515Z,165
2018-09-30T12:29:24.525Z,165
2018-09-30T12:30:24.324Z,165
2018-09-30T12:31:24.777Z,165
2018-09-30T12:32:24.254Z,165
2018-09-30T12:33:24.515Z,160
2018-09-30T12:34:24.774Z,160
2018-09-30T12:35:24.065Z,160
2018-09-30T12:36:24.244Z,160
2018-09-30T12:37:24.265Z,160
2018-09-30T12:38:24.290Z,160
2018-09-30T12:39:24.855Z,160
2018-09-30T12:40:24.585Z,160
2018-09-30T12:41:24.522Z,160
2018-09-30T12:42:24.294Z,160
2018-09-30T12:43:24.020Z,160
2018-09-30T12:44:24.292Z,160
2018-09-30T12:45:24.378Z,160
2018-09-30T12:46:24.265Z,160
2018-09-30T12:47:24.776Z,160
2018-09-30T12:48:24.264Z,160
2018-09-30T12:49:24.549Z,155
2018-09-30T12:50:24.549Z,155
2018-09-30T12:51:24.529Z,155
2018-09-30T12:52:24.282Z,155
2018-09-30T12:53:24.021Z,155
2018-09-30T12:54:24.012Z,155
2018-09-30T12:55:24.375Z,155
2018-09-30T12:56:24.313Z,155
2018-09-30T12:57:24.553Z,160
2018-09-30T12:58:24.330Z,160
2018-09-30T12:59:24.306Z,155
2018-09-30T13:00:24.389Z,155
2018-09-30T13:01:24.327Z,155
2018-09-30T13:02:24.044Z,160
2018-09-30T13:03:24.560Z,155
2018-09-30T13:04:24.038Z,155
2018-09-30T13:05:24.373Z,155
2018-09-30T13:06:24.277Z,155
2018-09-30T13:07:24.048Z,155
2018-09-30T13:08:24.831Z,155
2018-09-30T13:09:24.048Z,155
2018-09-30T13:10:24.862Z,155
2018-09-30T13:11:24.578Z,150
2018-09-30T13:12:24.564Z,150
2018-09-30T13:13:24.305Z,150
2018-09-30T13:14:24.321Z,150
2018-09-30T13:15:24.427Z,150
2018-09-30T13:16:24.310Z,150
2018-09-30T13:17:24.576Z,150
2018-09-30T13:18:24.854Z,150
2018-09-30T13:19:24.578Z,150
2018-09-30T13:20:24.968Z,150
2018-09-30T13:21:24.584Z,150
2018-09-30T13:22:24.347Z,150
2018-09-30T13:23:24.614Z,150
2018-09-30T13:24:24.603Z,150
2018-09-30T13:38:48.952Z,150
2018-09-30T13:38:58.346Z,150
2018-09-30T13:39:58.962Z,150
2018-09-30T13:40:59.648Z,150
2018-09-30T13:41:58.117Z,150
2018-09-30T13:42:58.377Z,150
2018-09-30T13:43:58.632Z,150
2018-09-30T13:44:58.361Z,150
2018-09-30T13:45:58.679Z,150
2018-09-30T13:46:58.356Z,145
2018-09-30T13:47:58.605Z,145
2018-09-30T13:49:01.279Z,145
2018-09-30T13:49:58.627Z,145
2018-09-30T13:50:58.374Z,145
2018-09-30T13:51:58.635Z,145
2018-09-30T13:52:58.651Z,145
2018-09-30T13:53:58.668Z,145
2018-09-30T13:54:58.893Z,145
2018-09-30T13:55:58.125Z,145
2018-09-30T13:56:58.636Z,145
2018-09-30T13:57:58.383Z,145
2018-09-30T13:58:58.655Z,145
2018-09-30T13:59:58.637Z,145
2018-09-30T14:00:58.389Z,145
2018-09-30T14:01:57.870Z,145
2018-09-30T14:02:58.376Z,145
2018-09-30T14:03:58.671Z,145
2018-09-30T14:04:58.409Z,145
2018-09-30T14:05:58.138Z,145
2018-09-30T14:06:58.893Z,145
2018-09-30T14:07:58.671Z,150
2018-09-30T14:08:58.737Z,150
2018-09-30T14:09:58.130Z,150
2018-09-30T14:10:58.392Z,145
2018-09-30T14:11:58.398Z,145
2018-09-30T14:12:58.746Z,145
2018-09-30T14:13:58.962Z,145
2018-09-30T14:14:58.931Z,145
2018-09-30T14:15:58.149Z,145
2018-09-30T14:16:58.430Z,145
2018-09-30T14:17:58.652Z,145
2018-09-30T14:18:58.147Z,145
2018-09-30T14:19:58.917Z,145
2018-09-30T14:20:58.928Z,145
2018-09-30T14:21:58.426Z,145
2018-09-30T14:22:58.975Z,140